createdAt,value
2019-01-04T00:00:05.801Z,0.75
2019-01-04T00:01:05.863Z,0.75
2019-01-04T00:02:06.023Z,0.75
2019-01-04T00:03:05.268Z,0.75
2019-01-04T00:04:05.233Z,0.75
2019-01-04T00:05:05.645Z,0.75
2019-01-04T00:06:05.622Z,0.75
2019-01-04T00:07:05.790Z,0.75
2019-01-04T00:08:05.950Z,0.75
2019-01-04T00:09:05.764Z,0.75
2019-01-04T00:10:05.321Z,0.75
2019-01-04T00:11:05.406Z,0.75
2019-01-04T00:12:05.705Z,0.75
2019-01-04T00:13:05.799Z,0.75
2019-01-04T00:14:05.079Z,0.75
2019-01-04T00:15:05.240Z,0.75
2019-01-04T00:16:05.332Z,0.75
2019-01-04T00:17:05.391Z,0.81
2019-01-04T00:18:05.403Z,0.81
2019-01-04T00:19:05.463Z,0.81
2019-01-04T00:20:05.801Z,0.81
2019-01-04T00:21:05.884Z,0.81
2019-01-04T00:22:05.147Z,0.81
2019-01-04T00:23:05.257Z,0.81
2019-01-04T00:24:05.494Z,0.81
2019-01-04T00:25:05.642Z,0.81
2019-01-04T00:26:05.717Z,0.81
2019-01-04T00:27:05.789Z,0.81
2019-01-04T00:28:05.787Z,0.81
2019-01-04T00:29:05.952Z,0.81
2019-01-04T00:30:05.392Z,0.81
2019-01-04T00:31:05.720Z,0.81
2019-01-04T00:32:05.889Z,0.81
2019-01-04T00:33:05.322Z,0.81
2019-01-04T00:34:05.722Z,0.81
2019-01-04T00:35:05.807Z,0.81
2019-01-04T00:36:05.402Z,0.81
2019-01-04T00:37:05.872Z,0.81
2019-01-04T00:38:05.633Z,0.81
2019-01-04T00:39:05.725Z,0.81
2019-01-04T00:40:05.142Z,0.81
2019-01-04T00:41:05.314Z,0.81
2019-01-04T00:42:05.564Z,0.88
2019-01-04T00:43:05.480Z,0.88
2019-01-04T00:44:06.113Z,0.88
2019-01-04T00:45:05.476Z,0.81
2019-01-04T00:46:05.637Z,0.81
2019-01-04T00:47:05.826Z,0.88
2019-01-04T00:48:06.048Z,0.88
2019-01-04T00:49:05.165Z,0.88
2019-01-04T00:50:05.320Z,0.88
2019-01-04T00:51:05.559Z,0.88
2019-01-04T00:52:05.762Z,0.88
2019-01-04T00:53:05.157Z,0.88
2019-01-04T00:54:05.820Z,0.88
2019-01-04T00:55:05.781Z,0.88
2019-01-04T00:56:05.303Z,0.88
2019-01-04T00:57:05.573Z,0.88
2019-01-04T00:58:05.545Z,0.88
2019-01-04T00:59:05.241Z,0.88
2019-01-04T01:00:05.310Z,0.88
2019-01-04T01:01:05.867Z,0.88
2019-01-04T01:02:05.969Z,0.88
2019-01-04T01:03:05.058Z,0.88
2019-01-04T01:04:05.393Z,0.94
2019-01-04T01:05:05.788Z,0.94
2019-01-04T01:06:05.073Z,0.94
2019-01-04T01:07:05.230Z,0.94
2019-01-04T01:08:05.850Z,0.94
2019-01-04T01:09:05.862Z,0.94
2019-01-04T01:10:05.963Z,0.94
2019-01-04T01:11:05.141Z,0.94
2019-01-04T01:12:05.626Z,0.94
2019-01-04T01:13:05.945Z,0.94
2019-01-04T01:14:05.774Z,0.94
2019-01-04T01:15:05.725Z,0.94
2019-01-04T01:16:05.796Z,0.94
2019-01-04T01:17:06.107Z,0.94
2019-01-04T01:18:05.150Z,0.94
2019-01-04T01:19:05.468Z,0.94
2019-01-04T01:20:05.551Z,0.94
2019-01-04T01:21:05.943Z,0.94
2019-01-04T01:22:05.327Z,0.94
2019-01-04T01:23:05.632Z,0.94
2019-01-04T01:24:05.711Z,0.94
2019-01-04T01:25:05.795Z,0.94
2019-01-04T01:26:05.783Z,0.94
2019-01-04T01:27:06.022Z,0.94
2019-01-04T01:28:05.385Z,0.94
2019-01-04T01:29:06.017Z,0.94
2019-01-04T01:30:05.393Z,0.94
2019-01-04T01:31:05.475Z,0.94
2019-01-04T01:32:05.570Z,0.94
2019-01-04T01:33:05.631Z,0.94
2019-01-04T01:34:05.624Z,0.94
2019-01-04T01:35:05.701Z,0.94
2019-01-04T01:36:05.248Z,0.94
2019-01-04T01:37:05.141Z,0.94
2019-01-04T01:38:05.254Z,0.94
2019-01-04T01:39:05.952Z,0.94
2019-01-04T01:40:05.142Z,0.94
2019-01-04T01:41:05.390Z,0.94
2019-01-04T01:42:05.058Z,0.94
2019-01-04T01:43:05.312Z,0.94
2019-01-04T01:44:05.786Z,0.94
2019-01-04T01:45:06.033Z,0.94
2019-01-04T01:46:05.160Z,0.94
2019-01-04T01:47:05.153Z,0.94
2019-01-04T01:48:05.719Z,0.94
2019-01-04T01:49:05.700Z,0.94
2019-01-04T01:50:05.948Z,0.94
2019-01-04T01:51:05.381Z,0.94
2019-01-04T01:52:05.489Z,0.94
2019-01-04T01:53:05.571Z,0.94
2019-01-04T01:54:06.506Z,0.94
2019-01-04T01:55:05.785Z,0.94
2019-01-04T01:56:05.303Z,0.94
2019-01-04T01:57:05.799Z,0.94
2019-01-04T01:58:05.866Z,0.94
2019-01-04T01:59:06.038Z,0.94
2019-01-04T02:00:06.034Z,0.94
2019-01-04T02:01:05.471Z,0.94
2019-01-04T02:02:05.707Z,0.94
2019-01-04T02:03:06.024Z,0.94
2019-01-04T02:04:05.166Z,0.94
2019-01-04T02:05:05.680Z,0.94
2019-01-04T02:06:05.813Z,0.94
2019-01-04T02:07:05.713Z,0.94
2019-01-04T02:08:05.794Z,0.94
2019-01-04T02:09:07.364Z,1.00
2019-01-04T02:10:05.074Z,1.00
2019-01-04T02:11:05.333Z,1.00
2019-01-04T02:12:05.150Z,1.00
2019-01-04T02:13:05.547Z,1.00
2019-01-04T02:14:05.812Z,1.00
2019-01-04T02:15:05.958Z,1.00
2019-01-04T02:16:05.176Z,0.94
2019-01-04T02:17:05.301Z,1.00
2019-01-04T02:18:05.711Z,0.94
2019-01-04T02:19:06.029Z,1.00
2019-01-04T02:20:05.223Z,1.00
2019-01-04T02:21:05.386Z,1.00
2019-01-04T02:22:05.629Z,1.00
2019-01-04T02:23:05.789Z,1.00
2019-01-04T02:24:05.866Z,1.00
2019-01-04T02:25:05.941Z,1.00
2019-01-04T02:26:05.628Z,1.00
2019-01-04T02:27:06.113Z,1.00
2019-01-04T02:28:05.238Z,1.00
2019-01-04T02:29:05.239Z,1.00
2019-01-04T02:30:05.794Z,1.00
2019-01-04T02:31:05.565Z,1.00
2019-01-04T02:32:05.538Z,1.00
2019-01-04T02:33:05.724Z,1.00
2019-01-04T02:34:05.401Z,1.00
2019-01-04T02:35:05.638Z,1.00
2019-01-04T02:36:05.703Z,1.00
2019-01-04T02:37:05.892Z,1.00
2019-01-04T02:38:05.963Z,1.00
2019-01-04T02:39:05.148Z,1.00
2019-01-04T02:40:05.222Z,1.00
2019-01-04T02:41:05.392Z,1.00
2019-01-04T02:42:05.957Z,1.00
2019-01-04T02:43:06.027Z,1.00
2019-01-04T02:44:05.163Z,1.00
2019-01-04T02:45:05.392Z,1.00
2019-01-04T02:46:06.022Z,1.00
2019-01-04T02:47:05.120Z,1.00
2019-01-04T02:48:06.287Z,1.00
2019-01-04T02:49:05.541Z,1.00
2019-01-04T02:50:06.022Z,1.00
2019-01-04T02:51:05.311Z,1.00
2019-01-04T02:52:05.883Z,1.00
2019-01-04T02:53:05.960Z,1.00
2019-01-04T02:54:05.138Z,1.00
2019-01-04T02:55:05.716Z,1.00
2019-01-04T02:56:06.139Z,1.00
2019-01-04T02:57:05.560Z,1.00
2019-01-04T02:58:05.533Z,1.00
2019-01-04T02:59:05.563Z,1.00
2019-01-04T03:00:05.637Z,1.00
2019-01-04T03:01:05.700Z,1.00
2019-01-04T03:02:05.861Z,1.00
2019-01-04T03:03:05.384Z,1.00
2019-01-04T03:04:05.559Z,1.00
2019-01-04T03:05:05.548Z,1.00
2019-01-04T03:06:05.947Z,1.00
2019-01-04T03:07:05.166Z,1.00
2019-01-04T03:08:05.233Z,1.00
2019-01-04T03:09:05.624Z,1.00
2019-01-04T03:10:05.711Z,1.00
2019-01-04T03:11:05.883Z,1.00
2019-01-04T03:12:05.639Z,1.00
2019-01-04T03:13:05.229Z,1.00
2019-01-04T03:14:05.885Z,1.00
2019-01-04T03:15:05.386Z,1.00
2019-01-04T03:16:05.629Z,1.00
2019-01-04T03:17:06.135Z,1.00
2019-01-04T03:18:05.076Z,1.00
2019-01-04T03:19:05.228Z,1.00
2019-01-04T03:20:05.230Z,1.00
2019-01-04T03:21:05.481Z,1.00
2019-01-04T03:22:05.564Z,0.94
2019-01-04T03:23:05.635Z,0.94
2019-01-04T03:24:05.798Z,1.00
2019-01-04T03:25:05.880Z,0.94
2019-01-04T03:26:05.939Z,0.94
2019-01-04T03:27:05.078Z,1.00
2019-01-04T03:28:05.205Z,0.94
2019-01-04T03:29:05.300Z,1.00
2019-01-04T03:30:05.381Z,1.00
2019-01-04T03:31:05.546Z,0.94
2019-01-04T03:32:05.072Z,0.94
2019-01-04T03:33:05.247Z,0.94
2019-01-04T03:34:05.485Z,1.00
2019-01-04T03:35:05.572Z,1.00
2019-01-04T03:36:05.557Z,0.94
2019-01-04T03:37:05.798Z,0.94
2019-01-04T03:38:05.496Z,0.94
2019-01-04T03:39:05.465Z,0.94
2019-01-04T03:40:05.712Z,0.94
2019-01-04T03:41:05.955Z,0.94
2019-01-04T03:42:05.419Z,0.94
2019-01-04T03:43:05.798Z,0.94
2019-01-04T03:44:05.403Z,0.94
2019-01-04T03:45:05.627Z,0.94
2019-01-04T03:46:05.150Z,0.94
2019-01-04T03:47:05.312Z,0.94
2019-01-04T03:48:05.792Z,0.94
2019-01-04T03:49:05.710Z,0.94
2019-01-04T03:50:05.870Z,0.94
2019-01-04T03:51:05.383Z,0.94
2019-01-04T03:52:05.465Z,0.94
2019-01-04T03:53:05.075Z,0.94
2019-01-04T03:54:05.707Z,0.94
2019-01-04T03:55:06.036Z,0.94
2019-01-04T03:56:05.386Z,0.94
2019-01-04T03:57:05.505Z,0.94
2019-01-04T03:58:05.713Z,0.94
2019-01-04T03:59:06.105Z,0.94
2019-01-04T04:00:05.062Z,0.94
2019-01-04T04:01:05.624Z,0.94
2019-01-04T04:02:05.875Z,0.94
2019-01-04T04:03:05.309Z,0.88
2019-01-04T04:04:05.965Z,0.94
2019-01-04T04:05:05.323Z,0.94
2019-01-04T04:06:05.470Z,0.88
2019-01-04T04:07:05.550Z,0.88
2019-01-04T04:08:05.705Z,0.88
2019-01-04T04:09:05.231Z,0.88
2019-01-04T04:10:05.230Z,0.88
2019-01-04T04:11:05.307Z,0.88
2019-01-04T04:12:05.977Z,0.88
2019-01-04T04:13:05.980Z,0.88
2019-01-04T04:14:05.147Z,0.88
2019-01-04T04:15:05.368Z,0.88
2019-01-04T04:16:05.725Z,0.88
2019-01-04T04:17:06.113Z,0.88
2019-01-04T04:18:06.043Z,0.88
2019-01-04T04:19:05.635Z,0.88
2019-01-04T04:20:05.796Z,0.88
2019-01-04T04:21:05.870Z,0.88
2019-01-04T04:22:05.871Z,0.88
2019-01-04T04:23:05.406Z,0.88
2019-01-04T04:24:05.470Z,0.88
2019-01-04T04:25:05.489Z,0.88
2019-01-04T04:26:05.632Z,0.88
2019-01-04T04:27:05.223Z,0.88
2019-01-04T04:28:05.552Z,0.88
2019-01-04T04:29:06.026Z,0.81
2019-01-04T04:30:05.546Z,0.81
2019-01-04T04:31:05.163Z,0.88
2019-01-04T04:32:05.634Z,0.81
2019-01-04T04:33:05.780Z,0.88
2019-01-04T04:34:05.877Z,0.88
2019-01-04T04:35:05.385Z,0.81
2019-01-04T04:36:05.461Z,0.88
2019-01-04T04:37:05.634Z,0.88
2019-01-04T04:38:06.025Z,0.88
2019-01-04T04:39:05.172Z,0.81
2019-01-04T04:40:05.467Z,0.81
2019-01-04T04:41:05.163Z,0.81
2019-01-04T04:42:05.726Z,0.81
2019-01-04T04:43:05.713Z,0.81
2019-01-04T04:44:06.052Z,0.81
2019-01-04T04:45:06.037Z,0.81
2019-01-04T04:46:05.071Z,0.81
2019-01-04T04:47:05.476Z,0.81
2019-01-04T04:48:05.494Z,0.81
2019-01-04T04:49:05.797Z,0.81
2019-01-04T04:50:05.788Z,0.81
2019-01-04T04:51:05.944Z,0.81
2019-01-04T04:52:06.035Z,0.81
2019-01-04T04:53:05.550Z,0.81
2019-01-04T04:54:05.629Z,0.75
2019-01-04T04:55:05.240Z,0.75
2019-01-04T04:56:05.241Z,0.75
2019-01-04T04:57:05.790Z,0.75
2019-01-04T04:58:05.256Z,0.75
2019-01-04T04:59:05.375Z,0.75
2019-01-04T05:00:05.865Z,0.75
2019-01-04T05:01:05.947Z,0.75
2019-01-04T05:02:05.616Z,0.75
2019-01-04T05:03:05.498Z,0.75
2019-01-04T05:04:05.490Z,0.75
2019-01-04T05:05:05.559Z,0.75
2019-01-04T05:06:05.543Z,0.75
2019-01-04T05:07:05.642Z,0.75
2019-01-04T05:08:05.980Z,0.75
2019-01-04T05:09:06.129Z,0.75
2019-01-04T05:10:05.494Z,0.75
2019-01-04T05:11:05.629Z,0.75
2019-01-04T05:12:05.636Z,0.75
2019-01-04T05:13:05.316Z,0.75
2019-01-04T05:14:05.309Z,0.75
2019-01-04T05:15:05.548Z,0.75
2019-01-04T05:16:05.873Z,0.75
2019-01-04T05:17:05.159Z,0.75
2019-01-04T05:18:05.226Z,0.75
2019-01-04T05:19:05.599Z,0.69
2019-01-04T05:20:05.706Z,0.69
2019-01-04T05:21:05.317Z,0.69
2019-01-04T05:22:05.555Z,0.69
2019-01-04T05:23:05.868Z,0.69
2019-01-04T05:24:05.323Z,0.69
2019-01-04T05:25:05.865Z,0.69
2019-01-04T05:26:05.966Z,0.69
2019-01-04T05:27:05.320Z,0.69
2019-01-04T05:28:05.542Z,0.69
2019-01-04T05:29:05.711Z,0.69
2019-01-04T05:30:05.243Z,0.69
2019-01-04T05:31:05.568Z,0.69
2019-01-04T05:32:06.108Z,0.69
2019-01-04T05:33:05.360Z,0.69
2019-01-04T05:34:05.716Z,0.69
2019-01-04T05:35:06.041Z,0.69
2019-01-04T05:36:06.032Z,0.62
2019-01-04T05:37:05.275Z,0.62
2019-01-04T05:38:05.727Z,0.69
2019-01-04T05:39:05.626Z,0.62
2019-01-04T05:40:05.806Z,0.62
2019-01-04T05:41:05.778Z,0.62
2019-01-04T05:42:05.870Z,0.62
2019-01-04T05:43:06.124Z,0.62
2019-01-04T05:44:05.246Z,0.62
2019-01-04T05:45:05.633Z,0.62
2019-01-04T05:46:05.391Z,0.62
2019-01-04T05:47:05.551Z,0.62
2019-01-04T05:48:05.868Z,0.62
2019-01-04T05:49:05.466Z,0.62
2019-01-04T05:50:05.171Z,0.62
2019-01-04T05:51:05.151Z,0.62
2019-01-04T05:52:05.306Z,0.62
2019-01-04T05:53:06.034Z,0.62
2019-01-04T05:54:05.230Z,0.62
2019-01-04T05:55:05.240Z,0.62
2019-01-04T05:56:05.567Z,0.62
2019-01-04T05:57:05.731Z,0.62
2019-01-04T05:58:05.768Z,0.62
2019-01-04T05:59:05.252Z,0.62
2019-01-04T06:00:05.230Z,0.62
2019-01-04T06:01:05.569Z,0.62
2019-01-04T06:02:05.470Z,0.62
2019-01-04T06:03:05.154Z,0.62
2019-01-04T06:04:05.715Z,0.62
2019-01-04T06:05:05.388Z,0.62
2019-01-04T06:06:05.947Z,0.62
2019-01-04T06:07:05.320Z,0.62
2019-01-04T06:08:05.623Z,0.62
2019-01-04T06:09:05.787Z,0.62
2019-01-04T06:10:05.864Z,0.62
2019-01-04T06:11:05.392Z,0.62
2019-01-04T06:12:05.707Z,0.62
2019-01-04T06:13:05.803Z,0.62
2019-01-04T06:14:05.869Z,0.62
2019-01-04T06:15:05.390Z,0.62
2019-01-04T06:16:05.882Z,0.62
2019-01-04T06:17:05.718Z,0.62
2019-01-04T06:18:05.703Z,0.56
2019-01-04T06:19:05.311Z,0.56
2019-01-04T06:20:05.482Z,0.56
2019-01-04T06:21:05.953Z,0.56
2019-01-04T06:22:06.030Z,0.56
2019-01-04T06:23:05.235Z,0.56
2019-01-04T06:24:05.629Z,0.56
2019-01-04T06:25:05.946Z,0.56
2019-01-04T06:26:05.392Z,0.56
2019-01-04T06:27:05.623Z,0.56
2019-01-04T06:28:05.808Z,0.56
2019-01-04T06:29:05.873Z,0.56
2019-01-04T06:30:05.639Z,0.56
2019-01-04T06:31:05.631Z,0.56
2019-01-04T06:32:05.868Z,0.56
2019-01-04T06:33:05.973Z,0.56
2019-01-04T06:34:05.643Z,0.56
2019-01-04T06:35:05.874Z,0.56
2019-01-04T06:36:05.948Z,0.56
2019-01-04T06:37:05.477Z,0.56
2019-01-04T06:38:05.631Z,0.56
2019-01-04T06:39:05.866Z,0.56
2019-01-04T06:40:05.481Z,0.56
2019-01-04T06:41:05.550Z,0.56
2019-01-04T06:42:05.232Z,0.56
2019-01-04T06:43:05.301Z,0.56
2019-01-04T06:44:05.566Z,0.50
2019-01-04T06:45:06.032Z,0.56
2019-01-04T06:46:05.553Z,0.50
2019-01-04T06:47:05.226Z,0.56
2019-01-04T06:48:05.411Z,0.50
2019-01-04T06:49:05.475Z,0.50
2019-01-04T06:50:05.472Z,0.56
2019-01-04T06:51:06.621Z,0.56
2019-01-04T06:52:05.783Z,0.56
2019-01-04T06:53:05.383Z,0.56
2019-01-04T06:54:06.039Z,0.56
2019-01-04T06:55:05.859Z,0.50
2019-01-04T06:56:05.560Z,0.56
2019-01-04T06:57:05.950Z,0.56
2019-01-04T06:58:05.164Z,0.56
2019-01-04T06:59:05.255Z,0.56
2019-01-04T07:00:05.723Z,0.56
2019-01-04T07:01:05.722Z,0.56
2019-01-04T07:02:05.793Z,0.56
2019-01-04T07:03:06.207Z,0.56
2019-01-04T07:04:05.153Z,0.56
2019-01-04T07:05:05.789Z,0.56
2019-01-04T07:06:05.798Z,0.56
2019-01-04T07:07:05.864Z,0.56
2019-01-04T07:08:05.958Z,0.56
2019-01-04T07:09:05.099Z,0.56
2019-01-04T07:10:05.225Z,0.56
2019-01-04T07:11:06.016Z,0.56
2019-01-04T07:12:05.076Z,0.56
2019-01-04T07:13:05.310Z,0.56
2019-01-04T07:14:05.397Z,0.56
2019-01-04T07:15:05.551Z,0.56
2019-01-04T07:16:05.719Z,0.56
2019-01-04T07:17:05.316Z,0.56
2019-01-04T07:18:05.957Z,0.56
2019-01-04T07:19:05.224Z,0.56
2019-01-04T07:20:05.422Z,0.56
2019-01-04T07:21:05.311Z,0.56
2019-01-04T07:22:05.473Z,0.56
2019-01-04T07:23:05.625Z,0.56
2019-01-04T07:24:05.789Z,0.56
2019-01-04T07:25:05.877Z,0.56
2019-01-04T07:26:05.221Z,0.56
2019-01-04T07:27:05.472Z,0.56
2019-01-04T07:28:06.035Z,0.56
2019-01-04T07:29:05.234Z,0.56
2019-01-04T07:30:05.869Z,0.56
2019-01-04T07:31:05.724Z,0.56
2019-01-04T07:32:05.793Z,0.56
2019-01-04T07:33:05.901Z,0.56
2019-01-04T07:34:05.898Z,0.56
2019-01-04T07:35:05.200Z,0.56
2019-01-04T07:36:05.784Z,0.56
2019-01-04T07:37:05.838Z,0.56
2019-01-04T07:38:05.587Z,0.62
2019-01-04T07:39:05.548Z,0.56
2019-01-04T07:40:05.688Z,0.56
2019-01-04T07:41:06.084Z,0.56
2019-01-04T07:42:05.391Z,0.62
2019-01-04T07:43:06.140Z,0.62
2019-01-04T07:44:06.012Z,0.62
2019-01-04T07:45:05.155Z,0.62
2019-01-04T07:46:05.632Z,0.62
2019-01-04T07:47:05.903Z,0.62
2019-01-04T07:48:05.482Z,0.62
2019-01-04T07:49:05.490Z,0.62
2019-01-04T07:50:05.494Z,0.62
2019-01-04T07:51:05.382Z,0.62
2019-01-04T07:52:05.183Z,0.62
2019-01-04T07:53:05.422Z,0.62
2019-01-04T07:54:05.631Z,0.62
2019-01-04T07:55:05.726Z,0.69
2019-01-04T07:56:05.945Z,0.69
2019-01-04T07:57:05.653Z,0.69
2019-01-04T07:58:05.855Z,0.69
2019-01-04T07:59:05.951Z,0.62
2019-01-04T08:00:05.124Z,0.69
2019-01-04T08:01:05.260Z,0.69
2019-01-04T08:02:05.712Z,0.69
2019-01-04T08:03:05.384Z,0.69
2019-01-04T08:04:05.908Z,0.69
2019-01-04T08:05:05.699Z,0.69
2019-01-04T08:06:05.794Z,0.69
2019-01-04T08:07:05.973Z,0.69
2019-01-04T08:08:05.391Z,0.75
2019-01-04T08:09:05.988Z,0.75
2019-01-04T08:10:05.224Z,0.75
2019-01-04T08:11:05.969Z,0.75
2019-01-04T08:12:05.818Z,0.75
2019-01-04T08:13:05.219Z,0.75
2019-01-04T08:14:05.963Z,0.75
2019-01-04T08:15:05.537Z,0.81
2019-01-04T08:16:05.646Z,0.81
2019-01-04T08:17:05.795Z,0.81
2019-01-04T08:18:05.223Z,0.81
2019-01-04T08:19:05.395Z,0.81
2019-01-04T08:20:05.804Z,0.81
2019-01-04T08:21:05.509Z,0.81
2019-01-04T08:22:06.066Z,0.88
2019-01-04T08:23:05.977Z,0.88
2019-01-04T08:24:05.216Z,0.88
2019-01-04T08:25:05.397Z,0.88
2019-01-04T08:26:05.889Z,0.88
2019-01-04T08:27:06.069Z,0.88
2019-01-04T08:28:05.179Z,0.94
2019-01-04T08:29:05.520Z,0.94
2019-01-04T08:30:05.263Z,0.94
2019-01-04T08:31:06.048Z,0.94
2019-01-04T08:32:05.814Z,0.94
2019-01-04T08:33:06.061Z,0.94
2019-01-04T08:34:05.337Z,1.00
2019-01-04T08:35:05.889Z,1.00
2019-01-04T08:36:06.860Z,1.00
2019-01-04T08:37:05.737Z,1.00
2019-01-04T08:38:05.885Z,1.00
2019-01-04T08:39:05.972Z,1.00
2019-01-04T08:40:05.188Z,1.00
2019-01-04T08:41:05.478Z,1.06
2019-01-04T08:42:05.792Z,1.06
2019-01-04T08:43:05.409Z,1.06
2019-01-04T08:44:05.591Z,1.06
2019-01-04T08:45:06.063Z,1.06
2019-01-04T08:46:05.348Z,1.06
2019-01-04T08:47:05.819Z,1.06
2019-01-04T08:48:06.016Z,1.06
2019-01-04T08:49:05.176Z,1.06
2019-01-04T08:50:06.215Z,1.12
2019-01-04T08:51:05.701Z,1.12
2019-01-04T08:52:05.842Z,1.12
2019-01-04T08:53:06.152Z,1.12
2019-01-04T08:54:05.238Z,1.12
2019-01-04T08:55:05.709Z,1.12
2019-01-04T08:56:05.811Z,1.19
2019-01-04T08:57:05.437Z,1.19
2019-01-04T08:58:06.021Z,1.19
2019-01-04T08:59:05.418Z,1.19
2019-01-04T09:00:05.965Z,1.19
2019-01-04T09:01:05.749Z,1.19
2019-01-04T09:02:05.885Z,1.19
2019-01-04T09:03:05.417Z,1.19
2019-01-04T09:04:05.258Z,1.25
2019-01-04T09:05:05.564Z,1.25
2019-01-04T09:06:05.263Z,1.25
2019-01-04T09:07:06.502Z,1.25
2019-01-04T09:08:05.979Z,1.25
2019-01-04T09:09:06.060Z,1.31
2019-01-04T09:10:05.255Z,1.31
2019-01-04T09:11:05.425Z,1.31
2019-01-04T09:12:05.562Z,1.31
2019-01-04T09:13:05.244Z,1.31
2019-01-04T09:14:05.306Z,1.31
2019-01-04T09:15:06.455Z,1.38
2019-01-04T09:16:05.844Z,1.38
2019-01-04T09:17:05.658Z,1.38
2019-01-04T09:18:05.732Z,1.38
2019-01-04T09:19:05.491Z,1.38
2019-01-04T09:20:05.984Z,1.38
2019-01-04T09:21:05.284Z,1.44
2019-01-04T09:22:05.626Z,1.44
2019-01-04T09:23:05.238Z,1.44
2019-01-04T09:24:05.519Z,1.44
2019-01-04T09:25:05.767Z,1.44
2019-01-04T09:26:05.813Z,1.44
2019-01-04T09:27:05.991Z,1.50
2019-01-04T09:28:05.506Z,1.50
2019-01-04T09:29:05.597Z,1.50
2019-01-04T09:30:05.177Z,1.50
2019-01-04T09:31:05.506Z,1.50
2019-01-04T09:32:05.270Z,1.50
2019-01-04T09:33:05.353Z,1.56
2019-01-04T09:34:05.988Z,1.56
2019-01-04T09:35:05.937Z,1.56
2019-01-04T09:36:06.137Z,1.56
2019-01-04T09:37:05.651Z,1.56
2019-01-04T09:38:05.599Z,1.62
2019-01-04T09:39:06.096Z,1.62
2019-01-04T09:40:05.577Z,1.62
2019-01-04T09:41:06.077Z,1.62
2019-01-04T09:42:05.309Z,1.69
2019-01-04T09:43:05.642Z,1.69
2019-01-04T09:44:06.094Z,1.69
2019-01-04T09:45:05.409Z,1.69
2019-01-04T09:46:05.120Z,1.69
2019-01-04T09:47:05.522Z,1.69
2019-01-04T09:48:05.368Z,1.69
2019-01-04T09:49:06.535Z,1.75
2019-01-04T09:50:05.689Z,1.75
2019-01-04T09:51:05.738Z,1.75
2019-01-04T09:52:05.821Z,1.75
2019-01-04T09:53:05.354Z,1.75
2019-01-04T09:54:05.571Z,1.75
2019-01-04T09:55:05.650Z,1.75
2019-01-04T09:56:05.346Z,1.75
2019-01-04T09:57:06.029Z,1.75
2019-01-04T09:58:05.286Z,1.75
2019-01-04T09:59:05.522Z,1.75
2019-01-04T10:00:06.159Z,1.75
2019-01-04T10:01:05.708Z,1.75
2019-01-04T10:02:05.177Z,1.75
2019-01-04T10:03:05.286Z,1.75
2019-01-04T10:04:05.640Z,1.75
2019-01-04T10:05:05.915Z,1.75
2019-01-04T10:06:05.970Z,1.81
2019-01-04T10:07:05.186Z,1.81
2019-01-04T10:08:05.965Z,1.81
2019-01-04T10:09:05.522Z,1.81
2019-01-04T10:10:06.037Z,1.81
2019-01-04T10:11:05.174Z,1.88
2019-01-04T10:12:05.261Z,1.88
2019-01-04T10:13:05.356Z,1.88
2019-01-04T10:14:05.635Z,1.88
2019-01-04T10:15:05.412Z,1.94
2019-01-04T10:16:05.237Z,1.94
2019-01-04T10:17:05.076Z,1.94
2019-01-04T10:18:05.834Z,2.00
2019-01-04T10:19:05.171Z,2.00
2019-01-04T10:20:05.488Z,2.00
2019-01-04T10:21:05.799Z,2.00
2019-01-04T10:22:06.009Z,2.06
2019-01-04T10:23:05.487Z,2.06
2019-01-04T10:24:05.263Z,2.06
2019-01-04T10:25:05.358Z,2.06
2019-01-04T10:26:05.902Z,2.12
2019-01-04T10:27:05.808Z,2.12
2019-01-04T10:28:05.467Z,2.12
2019-01-04T10:29:05.570Z,2.12
2019-01-04T10:30:05.150Z,2.12
2019-01-04T10:31:05.425Z,2.19
2019-01-04T10:32:05.566Z,2.19
2019-01-04T10:33:05.310Z,2.19
2019-01-04T10:34:06.045Z,2.19
2019-01-04T10:35:10.422Z,2.25
2019-01-04T10:36:05.161Z,2.25
2019-01-04T10:37:05.470Z,2.25
2019-01-04T10:38:05.506Z,2.25
2019-01-04T10:39:05.806Z,2.31
2019-01-04T10:40:10.845Z,2.31
2019-01-04T10:41:05.854Z,2.31
2019-01-04T10:42:05.336Z,2.31
2019-01-04T10:43:05.603Z,2.31
2019-01-04T10:44:06.030Z,2.38
2019-01-04T10:45:05.786Z,2.38
2019-01-04T10:46:06.092Z,2.38
2019-01-04T10:47:05.229Z,2.38
2019-01-04T10:48:05.817Z,2.38
2019-01-04T10:49:06.034Z,2.38
2019-01-04T10:50:05.813Z,2.44
2019-01-04T10:51:05.958Z,2.38
2019-01-04T10:52:05.349Z,2.38
2019-01-04T10:53:05.466Z,2.44
2019-01-04T10:54:05.960Z,2.44
2019-01-04T10:55:05.718Z,2.44
2019-01-04T10:56:05.996Z,2.44
2019-01-04T10:57:05.156Z,2.44
2019-01-04T10:58:06.029Z,2.44
2019-01-04T10:59:05.651Z,2.44
2019-01-04T11:00:05.714Z,2.44
2019-01-04T11:01:05.877Z,2.44
2019-01-04T11:02:05.959Z,2.44
2019-01-04T11:03:05.481Z,2.44
2019-01-04T11:04:05.718Z,2.44
2019-01-04T11:05:05.871Z,2.44
2019-01-04T11:06:05.318Z,2.44
2019-01-04T11:07:05.931Z,2.44
2019-01-04T11:08:05.975Z,2.44
2019-01-04T11:09:05.359Z,2.50
2019-01-04T11:10:05.926Z,2.50
2019-01-04T11:11:05.095Z,2.44
2019-01-04T11:12:05.157Z,2.44
2019-01-04T11:13:05.322Z,2.44
2019-01-04T11:14:05.315Z,2.44
2019-01-04T11:15:05.471Z,2.44
2019-01-04T11:16:05.813Z,2.50
2019-01-04T11:17:05.813Z,2.50
2019-01-04T11:18:09.854Z,2.50
2019-01-04T11:19:05.388Z,2.50
2019-01-04T11:20:05.880Z,2.50
2019-01-04T11:21:05.068Z,2.50
2019-01-04T11:22:05.160Z,2.50
2019-01-04T11:23:05.466Z,2.50
2019-01-04T11:24:05.639Z,2.50
2019-01-04T11:25:05.715Z,2.50
2019-01-04T11:26:05.790Z,2.50
2019-01-04T11:27:05.150Z,2.50
2019-01-04T11:28:05.226Z,2.50
2019-01-04T11:29:05.457Z,2.50
2019-01-04T11:30:04.990Z,2.50
2019-01-04T11:31:05.224Z,2.50
2019-01-04T11:32:05.227Z,2.50
2019-01-04T11:33:05.393Z,2.50
2019-01-04T11:34:05.468Z,2.56
2019-01-04T11:35:05.162Z,2.56
2019-01-04T11:36:05.149Z,2.56
2019-01-04T11:37:05.621Z,2.56
2019-01-04T11:38:06.036Z,2.56
2019-01-04T11:39:05.702Z,2.56
2019-01-04T11:40:05.796Z,2.62
2019-01-04T11:41:05.971Z,2.62
2019-01-04T11:42:05.948Z,2.62
2019-01-04T11:43:06.850Z,2.62
2019-01-04T11:44:05.238Z,2.62
2019-01-04T11:45:05.312Z,2.62
2019-01-04T11:46:05.629Z,2.62
2019-01-04T11:47:05.096Z,2.62
2019-01-04T11:48:05.245Z,2.62
2019-01-04T11:49:05.639Z,2.69
2019-01-04T11:50:05.232Z,2.69
2019-01-04T11:51:05.967Z,2.69
2019-01-04T11:52:06.004Z,2.69
2019-01-04T11:53:05.521Z,2.69
2019-01-04T11:54:05.649Z,2.69
2019-01-04T11:55:05.570Z,2.75
2019-01-04T11:56:05.784Z,2.75
2019-01-04T11:57:05.469Z,2.69
2019-01-04T11:58:05.864Z,2.69
2019-01-04T11:59:05.470Z,2.69
2019-01-04T12:00:05.494Z,2.69
2019-01-04T12:01:05.357Z,2.69
2019-01-04T12:02:05.365Z,2.75
2019-01-04T12:03:05.527Z,2.69
2019-01-04T12:04:05.934Z,2.75
2019-01-04T12:05:05.219Z,2.75
2019-01-04T12:06:05.363Z,2.75
2019-01-04T12:07:05.602Z,2.75
2019-01-04T12:08:05.250Z,2.75
2019-01-04T12:09:05.794Z,2.75
2019-01-04T12:10:06.033Z,2.75
2019-01-04T12:11:05.065Z,2.75
2019-01-04T12:12:05.629Z,2.69
2019-01-04T12:13:05.215Z,2.75
2019-01-04T12:14:05.693Z,2.75
2019-01-04T12:15:06.029Z,2.75
2019-01-04T12:16:05.438Z,2.75
2019-01-04T12:17:05.794Z,2.75
2019-01-04T12:18:06.212Z,2.69
2019-01-04T12:19:05.065Z,2.69
2019-01-04T12:20:05.383Z,2.75
2019-01-04T12:21:05.292Z,2.75
2019-01-04T12:22:05.567Z,2.75
2019-01-04T12:23:11.023Z,2.75
2019-01-04T12:24:05.755Z,2.75
2019-01-04T12:25:05.606Z,2.75
2019-01-04T12:26:06.098Z,2.75
2019-01-04T12:27:06.025Z,2.75
2019-01-04T12:28:05.226Z,2.75
2019-01-04T12:29:06.371Z,2.75
2019-01-04T12:30:05.888Z,2.75
2019-01-04T12:31:05.312Z,2.75
2019-01-04T12:32:05.547Z,2.75
2019-01-04T12:33:05.634Z,2.81
2019-01-04T12:34:05.546Z,2.75
2019-01-04T12:35:05.600Z,2.75
2019-01-04T12:36:05.724Z,2.75
2019-01-04T12:37:06.028Z,2.75
2019-01-04T12:38:05.046Z,2.75
2019-01-04T12:39:05.287Z,2.75
2019-01-04T12:40:05.469Z,2.75
2019-01-04T12:41:07.289Z,2.75
2019-01-04T12:42:05.837Z,2.75
2019-01-04T12:43:06.014Z,2.75
2019-01-04T12:44:05.064Z,2.75
2019-01-04T12:45:05.752Z,2.75
2019-01-04T12:46:05.876Z,2.75
2019-01-04T12:47:06.018Z,2.75
2019-01-04T12:48:05.713Z,2.75
2019-01-04T12:49:05.764Z,2.75
2019-01-04T12:50:05.138Z,2.75
2019-01-04T12:51:05.631Z,2.75
2019-01-04T12:52:05.956Z,2.75
2019-01-04T12:53:05.469Z,2.75
2019-01-04T12:54:05.556Z,2.75
2019-01-04T12:55:05.861Z,2.75
2019-01-04T12:56:05.876Z,2.75
2019-01-04T12:57:06.003Z,2.75
2019-01-04T12:58:05.388Z,2.75
2019-01-04T12:59:05.754Z,2.75
2019-01-04T13:00:05.472Z,2.75
2019-01-04T13:01:05.476Z,2.75
2019-01-04T13:02:05.603Z,2.75
2019-01-04T13:03:05.927Z,2.75
2019-01-04T13:04:05.386Z,2.75
2019-01-04T13:05:05.478Z,2.75
2019-01-04T13:06:05.470Z,2.75
2019-01-04T13:07:05.686Z,2.75
2019-01-04T13:08:05.169Z,2.69
2019-01-04T13:09:05.139Z,2.75
2019-01-04T13:10:05.461Z,2.75
2019-01-04T13:11:05.767Z,2.75
2019-01-04T13:12:05.120Z,2.75
2019-01-04T13:13:05.383Z,2.75
2019-01-04T13:14:05.372Z,2.75
2019-01-04T13:15:05.563Z,2.75
2019-01-04T13:16:06.029Z,2.75
2019-01-04T13:17:05.220Z,2.75
2019-01-04T13:18:05.211Z,2.69